Time;durP1;ratioP1;P1;durP2;ratioP2;P2;SDS_P1;SDS_P2;PMS_P1;PMS_P2;Temp;Humidity;BMP_temperature;BMP_pressure;BME280_temperature;BME280_humidity;BME280_pressure;Samples;Min_cycle;Max_cycle;Signal;HPM_P1;HPM_P2
2022/08/30 00:02:34;;;;;;;;;;;;;;;19.09;69.99;101880.56;5049168;28;19938;-53
2022/08/30 00:05:01;;;;;;;;;;;;;;;19.06;70.37;101882.63;5052659;28;20364;-52
2022/08/30 00:07:26;;;;;;;;;;;;;;;19.03;70.55;101891.69;5055898;28;19921;-52
2022/08/30 00:09:51;;;;;;;;;;;;;;;19.04;70.40;101888.06;5058313;28;20003;-53
2022/08/30 00:12:19;;;;;;;;;;;;;;;19.07;70.18;101887.84;5057317;28;19934;-52
2022/08/30 00:14:45;;;;;;;;;;;;;;;19.07;70.23;101892.31;5059344;28;19971;-52
2022/08/30 00:17:10;;;;;;;;;;;;;;;19.07;70.50;101893.16;5057167;28;19916;-54
2022/08/30 00:19:36;;;;;;;;;;;;;;;19.04;70.41;101885.38;5056445;28;19924;-52
2022/08/30 00:22:02;;;;;;;;;;;;;;;19.03;70.57;101886.34;5056810;28;19913;-52
2022/08/30 00:24:27;;;;;;;;;;;;;;;19.04;70.34;101888.06;5052909;28;19969;-52
2022/08/30 00:26:52;;;;;;;;;;;;;;;19.06;70.35;101886.13;5051782;28;20403;-52
2022/08/30 00:29:18;;;;;;;;;;;;;;;19.08;70.20;101891.34;5055083;28;20437;-52
2022/08/30 00:31:43;;;;;;;;;;;;;;;19.07;70.30;101893.16;5061162;28;20081;-52
2022/08/30 00:34:08;;;;;;;;;;;;;;;19.09;70.36;101895.72;5057429;28;19920;-53
2022/08/30 00:36:34;;;;;;;;;;;;;;;19.09;70.42;101887.69;5035843;28;20296;-52
2022/08/30 00:38:59;;;;;;;;;;;;;;;19.11;70.43;101897.31;5059666;28;19916;-52
2022/08/30 00:41:24;;;;;;;;;;;;;;;19.14;70.54;101899.72;5054762;28;20028;-51
2022/08/30 00:43:51;;;;;;;;;;;;;;;19.16;70.39;101897.78;5054645;28;19920;-51
2022/08/30 00:46:16;;;;;;;;;;;;;;;19.21;70.67;101899.25;5051927;28;19924;-52
2022/08/30 00:48:44;;;;;;;;;;;;;;;19.24;70.38;101899.03;5052402;28;19919;-52
2022/08/30 00:51:11;;;;;;;;;;;;;;;19.24;70.14;101902.53;5053818;28;20307;-52
2022/08/30 00:53:39;;;;;;;;;;;;;;;19.27;70.26;101906.81;5060131;28;20018;-52
2022/08/30 00:56:05;;;;;;;;;;;;;;;19.28;70.30;101905.84;5057408;28;19916;-51
2022/08/30 00:58:32;;;;;;;;;;;;;;;19.28;70.50;101911.19;5053646;28;19928;-51
2022/08/30 01:00:59;;;;;;;;;;;;;;;19.30;70.17;101909.22;5049000;28;19924;-52
2022/08/30 01:03:25;;;;;;;;;;;;;;;19.32;70.40;101912.63;5050618;28;19916;-52
2022/08/30 01:05:50;;;;;;;;;;;;;;;19.33;70.47;101911.66;5049598;28;19939;-52
2022/08/30 01:08:16;;;;;;;;;;;;;;;19.34;70.53;101914.22;5054963;28;20000;-53
2022/08/30 01:10:42;;;;;;;;;;;;;;;19.36;70.58;101914.09;5052429;28;19929;-52
2022/08/30 01:13:09;;;;;;;;;;;;;;;19.38;70.24;101917.50;5047935;28;20318;-52
2022/08/30 01:15:34;;;;;;;;;;;;;;;19.39;70.19;101913.88;5046811;28;19924;-52
2022/08/30 01:18:00;;;;;;;;;;;;;;;19.38;69.97;101903.28;5053229;28;20287;-52
2022/08/30 01:20:28;;;;;;;;;;;;;;;19.38;70.05;101912.16;5052909;28;19919;-52
2022/08/30 01:22:53;;;;;;;;;;;;;;;19.37;70.19;101910.47;5056184;28;19920;-53
2022/08/30 01:25:20;;;;;;;;;;;;;;;19.38;70.39;101914.84;5056080;28;19928;-53
2022/08/30 01:28:06;;;;;;;;;;;;;;;19.39;70.00;101911.22;5057499;28;19927;-52
2022/08/30 01:30:31;;;;;;;;;;;;;;;19.39;70.18;101905.88;5055511;28;19920;-52
2022/08/30 01:32:59;;;;;;;;;;;;;;;19.36;70.30;101914.09;5057162;28;19961;-52
2022/08/30 01:35:24;;;;;;;;;;;;;;;19.33;70.09;101912.53;5050954;28;19935;-53
2022/08/30 01:37:50;;;;;;;;;;;;;;;19.32;70.03;101917.97;5052858;28;19916;-52
2022/08/30 01:40:15;;;;;;;;;;;;;;;19.30;70.33;101922.56;5051667;28;19920;-53
2022/08/30 01:42:41;;;;;;;;;;;;;;;19.27;70.49;101917.50;5048478;28;19951;-51
2022/08/30 01:45:07;;;;;;;;;;;;;;;19.24;70.50;101915.88;5045128;28;19925;-53
2022/08/30 01:47:32;;;;;;;;;;;;;;;19.26;70.34;101915.78;5049292;28;19927;-52
2022/08/30 01:49:57;;;;;;;;;;;;;;;19.24;70.18;101915.06;5037969;28;19920;-52
2022/08/30 01:52:24;;;;;;;;;;;;;;;19.24;70.45;101915.06;5048633;28;20388;-53
2022/08/30 01:54:49;;;;;;;;;;;;;;;19.23;70.17;101910.69;5054781;28;19935;-53
2022/08/30 01:57:18;;;;;;;;;;;;;;;19.18;70.26;101911.88;5058854;28;19920;-52
2022/08/30 01:59:46;;;;;;;;;;;;;;;19.16;70.17;101918.28;5057653;28;19918;-53
2022/08/30 02:02:13;;;;;;;;;;;;;;;19.13;70.27;101914.06;5055892;28;19916;-52
2022/08/30 02:04:38;;;;;;;;;;;;;;;19.13;70.08;101918.53;5049829;28;20264;-52
2022/08/30 02:07:04;;;;;;;;;;;;;;;19.10;70.34;101918.75;5056834;28;19935;-53
2022/08/30 02:09:29;;;;;;;;;;;;;;;19.08;70.28;101921.53;5048638;28;20673;-53
2022/08/30 02:11:54;;;;;;;;;;;;;;;19.07;70.45;101921.63;5051551;28;19925;-52
2022/08/30 02:14:20;;;;;;;;;;;;;;;19.02;70.44;101917.53;5045186;28;19973;-54
2022/08/30 02:16:47;;;;;;;;;;;;;;;19.01;70.43;101920.28;5047500;28;19927;-53
2022/08/30 02:19:12;;;;;;;;;;;;;;;18.98;70.16;101916.06;5047890;28;19931;-53
2022/08/30 02:21:38;;;;;;;;;;;;;;;18.94;70.32;101919.03;5052108;28;19920;-53
2022/08/30 02:24:03;;;;;;;;;;;;;;;18.92;70.44;101920.97;5057491;28;19981;-53
2022/08/30 02:26:28;;;;;;;;;;;;;;;18.91;70.47;101916.59;5049862;28;20585;-52
2022/08/30 02:28:54;;;;;;;;;;;;;;;18.88;70.37;101921.19;5045279;28;20403;-54
2022/08/30 02:31:20;;;;;;;;;;;;;;;18.88;70.60;101920.34;5048273;28;19932;-53
2022/08/30 02:33:46;;;;;;;;;;;;;;;18.87;70.56;101919.47;5054609;28;19939;-53
2022/08/30 02:36:11;;;;;;;;;;;;;;;18.87;70.91;101913.31;5050630;28;20542;-52
2022/08/30 02:38:37;;;;;;;;;;;;;;;18.88;70.71;101910.50;5051201;28;19925;-54
2022/08/30 02:41:02;;;;;;;;;;;;;;;18.93;70.65;101914.66;5056775;28;20783;-52
2022/08/30 02:43:28;;;;;;;;;;;;;;;18.94;70.82;101917.22;5049958;28;20043;-53
2022/08/30 02:45:53;;;;;;;;;;;;;;;18.96;70.56;101912.63;5051666;28;20291;-52
2022/08/30 02:48:18;;;;;;;;;;;;;;;18.98;70.57;101916.06;5054291;28;19947;-54
2022/08/30 02:50:46;;;;;;;;;;;;;;;19.01;70.42;101909.63;5056095;28;20315;-53
2022/08/30 02:53:11;;;;;;;;;;;;;;;19.02;70.43;101908.66;5055599;28;20087;-53
2022/08/30 02:55:37;;;;;;;;;;;;;;;19.03;70.57;101910.34;5050491;28;19984;-54
2022/08/30 02:58:02;;;;;;;;;;;;;;;19.04;70.60;101904.06;5052408;28;20507;-51
2022/08/30 03:00:27;;;;;;;;;;;;;;;19.06;70.53;101904.81;5045548;28;20349;-51
2022/08/30 03:02:53;;;;;;;;;;;;;;;19.09;70.45;101909.91;5054926;28;19921;-51
2022/08/30 03:05:18;;;;;;;;;;;;;;;19.11;70.64;101905.31;5052464;28;19955;-52
2022/08/30 03:07:45;;;;;;;;;;;;;;;19.13;70.46;101908.72;5051975;28;19928;-52
2022/08/30 03:10:10;;;;;;;;;;;;;;;19.15;70.53;101905.94;5050360;28;19921;-52
2022/08/30 03:12:35;;;;;;;;;;;;;;;19.14;70.11;101905.06;5061772;28;19920;-52
2022/08/30 03:15:01;;;;;;;;;;;;;;;19.16;70.32;101907.63;5053544;28;19978;-53
2022/08/30 03:17:26;;;;;;;;;;;;;;;19.17;70.34;101909.31;5052968;28;20081;-53
2022/08/30 03:19:51;;;;;;;;;;;;;;;19.16;70.16;101903.13;5054991;28;19935;-52
2022/08/30 03:22:17;;;;;;;;;;;;;;;19.15;70.37;101912.09;5052348;28;19947;-53
2022/08/30 03:24:44;;;;;;;;;;;;;;;19.16;70.34;101907.63;5051833;28;19939;-53
2022/08/30 03:27:10;;;;;;;;;;;;;;;19.17;70.05;101910.16;5050059;28;20379;-52
2022/08/30 03:29:35;;;;;;;;;;;;;;;19.18;70.51;101911.88;5058539;28;19916;-53
2022/08/30 03:32:00;;;;;;;;;;;;;;;19.21;70.35;101915.28;5078048;28;19925;-53
2022/08/30 03:34:26;;;;;;;;;;;;;;;19.22;70.46;101912.47;5067218;28;20330;-54
2022/08/30 03:36:52;;;;;;;;;;;;;;;19.22;70.45;101915.16;5064784;28;19916;-52
2022/08/30 03:39:18;;;;;;;;;;;;;;;19.20;70.42;101925.13;5061773;28;19912;-53
2022/08/30 03:41:44;;;;;;;;;;;;;;;19.21;70.42;101926.78;5060109;28;20037;-54
2022/08/30 03:44:10;;;;;;;;;;;;;;;19.21;70.50;101925.94;5062048;28;19921;-53
2022/08/30 03:46:35;;;;;;;;;;;;;;;19.21;70.19;101925.94;5055954;28;19916;-52
2022/08/30 03:49:01;;;;;;;;;;;;;;;19.21;70.60;101925.94;5058710;28;19934;-53
2022/08/30 03:51:26;;;;;;;;;;;;;;;19.22;70.44;101932.97;5076841;28;19930;-52
2022/08/30 03:53:51;;;;;;;;;;;;;;;19.22;70.35;101932.97;5042761;28;20002;-52
2022/08/30 03:56:17;;;;;;;;;;;;;;;19.22;70.42;101935.66;5056677;28;19916;-53
2022/08/30 03:58:43;;;;;;;;;;;;;;;19.22;70.86;101933.81;5063328;28;20315;-52
2022/08/30 04:01:08;;;;;;;;;;;;;;;19.22;70.62;101938.31;5055403;28;19932;-52
2022/08/30 04:03:34;;;;;;;;;;;;;;;19.21;70.62;101941.97;5057379;28;19924;-53
2022/08/30 04:06:00;;;;;;;;;;;;;;;19.18;70.48;101938.53;5059246;28;20614;-53
2022/08/30 04:08:25;;;;;;;;;;;;;;;19.17;70.57;101936.84;5058451;28;19920;-53
2022/08/30 04:10:52;;;;;;;;;;;;;;;19.17;70.63;101936.00;5056938;28;19924;-52
2022/08/30 04:13:18;;;;;;;;;;;;;;;19.16;70.57;101937.81;5057230;28;19957;-53
2022/08/30 04:15:44;;;;;;;;;;;;;;;19.16;70.82;101932.47;5049372;28;19917;-53
2022/08/30 04:18:09;;;;;;;;;;;;;;;19.15;70.74;101933.44;5060764;28;19920;-52
2022/08/30 04:20:34;;;;;;;;;;;;;;;19.13;70.83;101929.19;5047064;28;19916;-53
2022/08/30 04:23:01;;;;;;;;;;;;;;;19.13;70.82;101930.06;5052973;28;19933;-52
2022/08/30 04:25:26;;;;;;;;;;;;;;;19.14;70.96;101936.22;5050952;28;20005;-52
2022/08/30 04:27:52;;;;;;;;;;;;;;;19.14;70.93;101946.91;5055527;28;20344;-53
2022/08/30 04:30:17;;;;;;;;;;;;;;;19.14;70.89;101942.41;5053053;28;19925;-52
2022/08/30 04:32:43;;;;;;;;;;;;;;;19.14;71.09;101937.06;5055834;28;19920;-52
2022/08/30 04:35:09;;;;;;;;;;;;;;;19.14;70.74;101947.75;5060361;28;19927;-52
2022/08/30 04:37:35;;;;;;;;;;;;;;;19.14;71.23;101947.75;5058264;28;19920;-52
2022/08/30 04:40:01;;;;;;;;;;;;;;;19.14;70.89;101942.41;5059183;28;19921;-52
2022/08/30 04:42:28;;;;;;;;;;;;;;;19.14;70.86;101934.41;5055268;28;19991;-52
2022/08/30 04:44:54;;;;;;;;;;;;;;;19.14;71.25;101942.41;5051067;28;19920;-54
2022/08/30 04:47:19;;;;;;;;;;;;;;;19.15;71.13;101948.59;5031921;28;20001;-52
2022/08/30 04:49:44;;;;;;;;;;;;;;;19.15;71.03;101949.44;5048796;28;19927;-51
2022/08/30 04:52:10;;;;;;;;;;;;;;;19.16;71.35;101951.16;5050667;28;19933;-53
2022/08/30 04:54:35;;;;;;;;;;;;;;;19.15;71.30;101954.78;5045048;28;19928;-52
2022/08/30 04:57:00;;;;;;;;;;;;;;;19.17;71.32;101952.84;5052321;28;19924;-53
2022/08/30 04:59:26;;;;;;;;;;;;;;;19.15;70.92;101954.78;5051652;28;19927;-52
2022/08/30 05:01:51;;;;;;;;;;;;;;;19.14;71.11;101947.75;5056392;28;20069;-53
2022/08/30 05:04:16;;;;;;;;;;;;;;;19.12;71.16;101952.38;5052837;28;20414;-53
2022/08/30 05:06:42;;;;;;;;;;;;;;;19.14;71.07;101957.56;5061535;28;20410;-52
2022/08/30 05:09:08;;;;;;;;;;;;;;;19.15;71.30;101965.44;5063830;28;19976;-51
2022/08/30 05:11:33;;;;;;;;;;;;;;;19.17;71.49;101962.69;5059143;28;19924;-54
2022/08/30 05:13:58;;;;;;;;;;;;;;;19.15;71.26;101970.78;5062866;28;20303;-53
2022/08/30 05:16:23;;;;;;;;;;;;;;;19.06;71.33;101966.16;5063561;28;20307;-53
2022/08/30 05:18:50;;;;;;;;;;;;;;;19.02;71.10;101967.34;5064222;28;19959;-54
2022/08/30 05:21:18;;;;;;;;;;;;;;;19.01;71.45;101968.31;5059627;28;20728;-52
2022/08/30 05:23:44;;;;;;;;;;;;;;;18.99;71.39;101972.91;5063838;28;19943;-52
2022/08/30 05:26:15;;;;;;;;;;;;;;;18.94;71.35;101973.25;5061098;28;19927;-52
2022/08/30 05:28:40;;;;;;;;;;;;;;;18.95;71.35;101968.78;5061092;28;20191;-51
2022/08/30 05:31:16;;;;;;;;;;;;;;;18.96;71.25;101970.47;5060689;28;20057;-53
2022/08/30 05:33:43;;;;;;;;;;;;;;;18.97;71.31;101974.84;5062253;28;19909;-52
2022/08/30 05:36:09;;;;;;;;;;;;;;;18.98;71.41;101968.56;5077996;28;19925;-52
2022/08/30 05:38:34;;;;;;;;;;;;;;;18.99;71.20;101975.56;5060988;28;19920;-52
2022/08/30 05:40:59;;;;;;;;;;;;;;;18.99;71.09;101976.44;5056964;28;19991;-51
2022/08/30 05:43:24;;;;;;;;;;;;;;;19.03;71.20;101977.91;5061282;28;19956;-51
2022/08/30 05:45:59;;;;;;;;;;;;;;;19.05;71.15;101975.13;5061378;28;19921;-52
2022/08/30 05:48:25;;;;;;;;;;;;;;;19.07;70.76;101977.66;5060254;28;19991;-51
2022/08/30 05:50:50;;;;;;;;;;;;;;;19.04;70.72;101978.75;5038496;28;19931;-52
2022/08/30 05:53:15;;;;;;;;;;;;;;;19.01;71.04;101978.97;5055961;28;20358;-53
2022/08/30 05:55:41;;;;;;;;;;;;;;;18.99;70.82;101975.56;5058004;28;19923;-53
2022/08/30 05:58:06;;;;;;;;;;;;;;;18.95;70.65;101976.78;5059460;28;19931;-52
2022/08/30 06:00:31;;;;;;;;;;;;;;;18.96;71.18;101981.16;5061020;28;19919;-51
2022/08/30 06:02:57;;;;;;;;;;;;;;;18.95;70.76;101982.09;5060438;28;19917;-52
2022/08/30 06:05:22;;;;;;;;;;;;;;;18.94;70.84;101983.03;5063023;28;19912;-51
2022/08/30 06:07:48;;;;;;;;;;;;;;;18.96;71.02;101981.97;5061404;28;20394;-51
2022/08/30 06:10:13;;;;;;;;;;;;;;;18.94;70.99;101973.25;5051644;28;19976;-52
2022/08/30 06:12:39;;;;;;;;;;;;;;;18.89;71.13;101981.56;5060125;28;20398;-52
2022/08/30 06:15:05;;;;;;;;;;;;;;;18.93;71.23;101976.00;5062362;28;19912;-51
2022/08/30 06:17:30;;;;;;;;;;;;;;;18.99;71.07;101980.91;5060273;28;19916;-52
2022/08/30 06:19:55;;;;;;;;;;;;;;;19.06;71.06;101975.97;5062103;28;19923;-52
2022/08/30 06:22:20;;;;;;;;;;;;;;;19.12;70.94;101987.03;5060680;28;20019;-52
2022/08/30 06:24:46;;;;;;;;;;;;;;;19.15;71.05;101985.97;5059984;28;20027;-52
2022/08/30 06:27:11;;;;;;;;;;;;;;;19.19;70.68;101980.28;5057590;28;20375;-52
2022/08/30 06:29:37;;;;;;;;;;;;;;;19.26;70.94;101985.16;5063896;28;20315;-51
2022/08/30 06:32:02;;;;;;;;;;;;;;;19.28;70.80;101985.91;5058402;28;19940;-52
2022/08/30 06:34:28;;;;;;;;;;;;;;;19.30;70.61;101989.28;5038192;28;19917;-52
2022/08/30 06:36:53;;;;;;;;;;;;;;;19.33;70.46;101994.38;5059951;28;19920;-52
2022/08/30 06:39:18;;;;;;;;;;;;;;;19.37;70.48;101992.34;5060751;28;19920;-52
2022/08/30 06:41:44;;;;;;;;;;;;;;;19.39;70.28;101993.94;5056060;28;19990;-52
2022/08/30 06:44:09;;;;;;;;;;;;;;;19.35;70.40;101997.78;5058574;28;19922;-52
2022/08/30 06:46:37;;;;;;;;;;;;;;;19.29;70.50;101998.25;5059471;28;20384;-52
2022/08/30 06:49:03;;;;;;;;;;;;;;;19.23;70.62;102002.22;5058911;28;19951;-52
2022/08/30 06:51:30;;;;;;;;;;;;;;;19.21;70.77;102000.66;5054533;28;20546;-53
2022/08/30 06:53:55;;;;;;;;;;;;;;;19.20;70.91;101999.81;5055751;28;19999;-52
2022/08/30 06:56:21;;;;;;;;;;;;;;;19.22;70.56;101999.69;5059097;28;19922;-51
2022/08/30 06:58:47;;;;;;;;;;;;;;;19.21;70.69;102000.66;5058742;28;20005;-53
2022/08/30 07:01:13;;;;;;;;;;;;;;;19.21;70.79;102003.31;5060131;28;19912;-52
2022/08/30 07:03:39;;;;;;;;;;;;;;;19.24;71.07;102006.59;5061847;28;19920;-52
2022/08/30 07:06:05;;;;;;;;;;;;;;;19.29;70.84;102003.59;5057762;28;19931;-53
2022/08/30 07:08:30;;;;;;;;;;;;;;;19.33;70.46;102003.25;5057137;28;19925;-52
2022/08/30 07:10:56;;;;;;;;;;;;;;;19.40;70.54;102014.31;5056878;28;19931;-52
2022/08/30 07:13:22;;;;;;;;;;;;;;;19.45;70.36;102008.63;5057446;28;19927;-52
2022/08/30 07:15:49;;;;;;;;;;;;;;;19.47;70.25;102018.22;5060902;28;19913;-52
2022/08/30 07:21:04;;;;;;;;;;;;;;;19.49;70.16;102010.13;5059364;28;19990;-52
2022/08/30 07:23:29;;;;;;;;;;;;;;;19.55;69.85;102019.47;5058187;28;19978;-51
2022/08/30 07:25:54;;;;;;;;;;;;;;;19.61;69.91;102010.97;5055336;28;19924;-52
2022/08/30 07:28:19;;;;;;;;;;;;;;;19.67;69.85;102018.53;5062362;28;20523;-53
2022/08/30 07:30:45;;;;;;;;;;;;;;;19.72;69.85;102020.84;5057337;28;19955;-52
2022/08/30 07:33:10;;;;;;;;;;;;;;;19.75;69.36;102026.78;5064455;28;19993;-53
2022/08/30 07:35:36;;;;;;;;;;;;;;;19.78;69.44;102023.88;5061130;28;20039;-52
2022/08/30 07:38:01;;;;;;;;;;;;;;;19.83;69.35;102033.38;5062967;28;20689;-53
2022/08/30 07:40:26;;;;;;;;;;;;;;;19.88;68.92;102039.25;5062826;28;19918;-53
2022/08/30 07:42:52;;;;;;;;;;;;;;;19.91;69.07;102041.66;5065456;28;19922;-53
2022/08/30 07:45:17;;;;;;;;;;;;;;;19.92;68.79;102040.69;5064962;28;19990;-53
2022/08/30 07:47:43;;;;;;;;;;;;;;;19.93;69.06;102043.28;5061327;28;19944;-52
2022/08/30 07:50:08;;;;;;;;;;;;;;;19.98;69.01;102048.25;5060148;28;19923;-52
2022/08/30 07:52:34;;;;;;;;;;;;;;;20.00;68.71;102046.31;5063293;28;19920;-52
2022/08/30 07:55:00;;;;;;;;;;;;;;;20.03;68.48;102043.41;5064201;28;19912;-52
2022/08/30 07:57:25;;;;;;;;;;;;;;;20.07;68.46;102044.03;5061577;28;19920;-52
2022/08/30 07:59:50;;;;;;;;;;;;;;;20.08;68.69;102043.88;5061032;28;19962;-52
2022/08/30 08:02:16;;;;;;;;;;;;;;;20.10;68.40;102049.13;5064297;28;19924;-52
2022/08/30 08:04:41;;;;;;;;;;;;;;;20.12;68.45;102049.84;5062808;28;19912;-52
2022/08/30 08:07:06;;;;;;;;;;;;;;;20.15;68.50;102043.41;5062830;28;20537;-52
2022/08/30 08:09:35;;;;;;;;;;;;;;;20.20;68.44;102050.09;5063480;28;19962;-52
2022/08/30 08:12:03;;;;;;;;;;;;;;;20.24;68.38;102054.25;5063502;28;19924;-52
2022/08/30 08:14:28;;;;;;;;;;;;;;;20.29;67.96;102050.34;5063357;28;19916;-52
2022/08/30 08:16:53;;;;;;;;;;;;;;;20.31;67.83;102051.94;5063252;28;19985;-51
2022/08/30 08:19:19;;;;;;;;;;;;;;;20.33;68.08;102052.69;5063000;28;20299;-53
2022/08/30 08:21:44;;;;;;;;;;;;;;;20.35;68.01;102050.69;5061167;28;19924;-53
2022/08/30 08:24:10;;;;;;;;;;;;;;;20.38;67.95;102045.13;5060971;28;19982;-52
2022/08/30 08:26:36;;;;;;;;;;;;;;;20.39;67.72;102048.66;5061267;28;20362;-51
2022/08/30 08:29:03;;;;;;;;;;;;;;;20.41;67.57;102049.41;5064944;28;19924;-51
2022/08/30 08:31:28;;;;;;;;;;;;;;;20.41;67.31;102054.75;5062894;28;19995;-52
2022/08/30 08:34:00;;;;;;;;;;;;;;;20.43;67.24;102057.28;5062987;28;20007;-52
2022/08/30 08:36:25;;;;;;;;;;;;;;;20.45;67.40;102055.34;5060387;28;19916;-52
2022/08/30 08:38:51;;;;;;;;;;;;;;;20.45;67.19;102056.19;5061970;28;19920;-53
2022/08/30 08:41:25;;;;;;;;;;;;;;;20.46;67.19;102054.38;5062706;28;19978;-52
2022/08/30 08:43:51;;;;;;;;;;;;;;;20.51;66.87;102054.84;5064649;28;20508;-52
2022/08/30 08:46:34;;;;;;;;;;;;;;;20.56;66.74;102050.84;5062981;28;19913;-52
2022/08/30 08:49:01;;;;;;;;;;;;;;;20.60;66.19;102051.44;5062387;28;19954;-52
2022/08/30 08:54:18;;;;;;;;;;;;;;;20.68;66.27;102054.34;5062795;28;19931;-53
2022/08/30 08:56:43;;;;;;;;;;;;;;;20.78;66.10;102053.66;5066328;28;19961;-52
2022/08/30 08:59:10;;;;;;;;;;;;;;;20.88;65.86;102048.38;5062538;28;19916;-52
2022/08/30 09:01:37;;;;;;;;;;;;;;;20.96;65.45;102053.97;5059993;28;19920;-53
2022/08/30 09:04:19;;;;;;;;;;;;;;;20.99;65.60;102059.91;5059352;28;20443;-52
2022/08/30 09:06:47;;;;;;;;;;;;;;;21.03;65.00;102057.84;5060480;28;19920;-52
2022/08/30 09:09:13;;;;;;;;;;;;;;;21.04;65.01;102056.84;5060361;28;20682;-52
2022/08/30 09:11:39;;;;;;;;;;;;;;;21.01;64.73;102063.31;5064080;28;19928;-52
2022/08/30 09:14:09;;;;;;;;;;;;;;;21.00;64.98;102060.78;5059820;28;19978;-52
2022/08/30 09:16:48;;;;;;;;;;;;;;;20.95;64.57;102063.81;5061075;28;19926;-52
2022/08/30 09:19:25;;;;;;;;;;;;;;;20.93;64.82;102075.63;5061496;28;20311;-52
2022/08/30 09:21:55;;;;;;;;;;;;;;;20.90;64.97;102065.16;5058294;28;19913;-51
2022/08/30 09:24:21;;;;;;;;;;;;;;;20.87;64.64;102060.91;5062327;28;19936;-54
2022/08/30 09:26:46;;;;;;;;;;;;;;;20.90;64.74;102060.69;5061995;28;19927;-51
2022/08/30 09:29:15;;;;;;;;;;;;;;;20.97;64.83;102067.22;5063131;28;19916;-52
2022/08/30 09:31:49;;;;;;;;;;;;;;;21.06;64.57;102064.78;5062519;28;19932;-53
2022/08/30 09:34:16;;;;;;;;;;;;;;;21.15;64.51;102058.66;5059775;28;20391;-52
2022/08/30 09:36:44;;;;;;;;;;;;;;;21.23;64.07;102066.94;5062310;28;19920;-52
2022/08/30 09:39:24;;;;;;;;;;;;;;;21.28;63.60;102061.19;5061046;28;20292;-53
2022/08/30 09:41:50;;;;;;;;;;;;;;;21.30;63.56;102067.28;5061623;28;19952;-52
2022/08/30 09:44:18;;;;;;;;;;;;;;;21.32;63.38;102060.81;5062524;28;19967;-52
2022/08/30 09:46:48;;;;;;;;;;;;;;;21.35;63.30;102064.19;5043573;28;19912;-51
2022/08/30 09:49:34;;;;;;;;;;;;;;;21.35;63.32;102050.81;5060245;28;19924;-53
2022/08/30 09:52:18;;;;;;;;;;;;;;;21.37;63.12;102051.53;5060828;28;19920;-52
2022/08/30 09:54:58;;;;;;;;;;;;;;;21.37;63.04;102052.38;5058201;28;19913;-52
2022/08/30 09:57:29;;;;;;;;;;;;;;;21.38;63.16;102058.59;5060026;28;20377;-52
2022/08/30 09:59:55;;;;;;;;;;;;;;;21.37;63.41;102060.41;5060601;28;20038;-53
2022/08/30 10:02:32;;;;;;;;;;;;;;;21.37;63.25;102057.72;5058849;28;19957;-52
2022/08/30 10:04:57;;;;;;;;;;;;;;;21.32;63.16;102059.97;5058920;28;19920;-54
2022/08/30 10:07:26;;;;;;;;;;;;;;;21.30;63.07;102064.59;5060177;28;19927;-52
2022/08/30 10:09:54;;;;;;;;;;;;;;;21.26;63.17;102069.31;5076613;28;20304;-52
2022/08/30 10:12:26;;;;;;;;;;;;;;;21.25;63.21;102061.44;5058655;28;20298;-52
2022/08/30 10:14:54;;;;;;;;;;;;;;;21.23;63.15;102058.91;5062075;28;19932;-52
2022/08/30 10:17:37;;;;;;;;;;;;;;;21.16;63.02;102060.38;5060116;28;19924;-52
2022/08/30 10:20:05;;;;;;;;;;;;;;;21.09;63.09;102061.84;5059706;28;19920;-54
2022/08/30 10:22:50;;;;;;;;;;;;;;;21.04;63.42;102058.69;5063867;28;20415;-52
2022/08/30 10:25:17;;;;;;;;;;;;;;;21.01;63.21;102055.28;5060136;28;19924;-51
2022/08/30 10:27:59;;;;;;;;;;;;;;;21.02;63.40;102059.69;5062171;28;20033;-52
2022/08/30 10:30:24;;;;;;;;;;;;;;;21.01;63.15;102066.00;5056019;28;19927;-52
2022/08/30 10:33:09;;;;;;;;;;;;;;;20.98;63.02;102058.22;5058951;28;20170;-52
2022/08/30 10:35:46;;;;;;;;;;;;;;;20.94;63.17;102058.59;5060959;28;20008;-52
2022/08/30 10:38:20;;;;;;;;;;;;;;;20.85;63.11;102062.88;5060335;28;20398;-52
2022/08/30 10:43:37;;;;;;;;;;;;;;;20.67;63.23;102066.00;5061877;28;19971;-52
2022/08/30 10:46:07;;;;;;;;;;;;;;;20.54;63.60;102070.63;5061738;28;19967;-53
2022/08/30 10:48:58;;;;;;;;;;;;;;;20.41;64.05;102076.13;5062099;28;19916;-52
2022/08/30 10:51:30;;;;;;;;;;;;;;;20.30;63.97;102070.75;5057509;28;20373;-52
2022/08/30 10:54:02;;;;;;;;;;;;;;;20.23;64.15;102078.41;5058575;28;20470;-52
2022/08/30 10:56:28;;;;;;;;;;;;;;;20.15;64.57;102080.84;5058502;28;20344;-52
2022/08/30 10:58:55;;;;;;;;;;;;;;;20.08;64.43;102085.81;5061904;28;19951;-54
2022/08/30 11:01:29;;;;;;;;;;;;;;;19.99;64.67;102090.03;5058142;28;19936;-53
2022/08/30 11:03:57;;;;;;;;;;;;;;;19.95;64.68;102091.22;5060347;28;20369;-52
2022/08/30 11:06:41;;;;;;;;;;;;;;;19.90;64.99;102093.38;5061104;28;19924;-52
2022/08/30 11:09:26;;;;;;;;;;;;;;;19.83;65.25;102097.47;5062233;28;19921;-53
2022/08/30 11:12:10;;;;;;;;;;;;;;;19.73;65.13;102094.66;5062747;28;19928;-52
2022/08/30 11:14:43;;;;;;;;;;;;;;;19.65;65.38;102097.88;5064959;28;19916;-52
2022/08/30 11:17:22;;;;;;;;;;;;;;;19.62;65.56;102100.78;5062057;28;19920;-52
2022/08/30 11:19:47;;;;;;;;;;;;;;;19.61;65.37;102099.06;5064270;28;20429;-52
2022/08/30 11:22:21;;;;;;;;;;;;;;;19.54;65.69;102096.03;5063762;28;19968;-53
2022/08/30 11:25:13;;;;;;;;;;;;;;;19.48;66.09;102105.34;5064007;28;19924;-52
2022/08/30 11:27:41;;;;;;;;;;;;;;;19.46;66.00;102104.59;5045464;28;19920;-52
2022/08/30 11:30:35;;;;;;;;;;;;;;;19.50;66.01;102108.75;5063632;28;20007;-52
2022/08/30 11:33:03;;;;;;;;;;;;;;;19.50;66.01;102105.25;5044603;28;19928;-52
2022/08/30 11:35:34;;;;;;;;;;;;;;;19.52;65.95;102116.63;5062710;28;19957;-53
2022/08/30 11:37:59;;;;;;;;;;;;;;;19.55;66.03;102105.72;5063651;28;19995;-54
2022/08/30 11:40:25;;;;;;;;;;;;;;;19.57;66.22;102105.63;5062387;28;20019;-53
2022/08/30 11:42:54;;;;;;;;;;;;;;;19.60;65.79;102110.72;5063516;28;19925;-53
2022/08/30 11:45:22;;;;;;;;;;;;;;;19.63;66.01;102102.50;5067197;28;19920;-53
2022/08/30 11:47:52;;;;;;;;;;;;;;;19.67;65.99;102111.13;5067488;28;19924;-53
2022/08/30 11:50:17;;;;;;;;;;;;;;;19.72;65.70;102100.94;5065556;28;19935;-53
2022/08/30 11:52:48;;;;;;;;;;;;;;;19.75;65.75;102108.72;5066626;28;19929;-52
2022/08/30 11:55:16;;;;;;;;;;;;;;;19.76;65.61;102100.59;5067405;28;19920;-52
2022/08/30 11:57:54;;;;;;;;;;;;;;;19.83;65.67;102097.47;5062081;28;20392;-52
2022/08/30 12:00:32;;;;;;;;;;;;;;;19.94;65.23;102100.19;5060468;28;20009;-52
2022/08/30 12:03:02;;;;;;;;;;;;;;;20.05;65.33;102096.72;5066052;28;19916;-54
2022/08/30 12:05:39;;;;;;;;;;;;;;;20.15;65.06;102091.53;5068765;28;19923;-52
2022/08/30 12:08:09;;;;;;;;;;;;;;;20.26;64.84;102088.84;5064441;28;19924;-53
2022/08/30 12:10:36;;;;;;;;;;;;;;;20.35;64.46;102092.63;5066848;28;20498;-52
2022/08/30 12:13:02;;;;;;;;;;;;;;;20.41;64.18;102092.16;5062003;28;20399;-53
2022/08/30 12:15:47;;;;;;;;;;;;;;;20.47;64.25;102090.84;5064580;28;19925;-53
2022/08/30 12:18:28;;;;;;;;;;;;;;;20.53;64.00;102091.19;5064492;28;19981;-52
2022/08/30 12:20:54;;;;;;;;;;;;;;;20.58;63.42;102088.16;5065998;28;19924;-52
2022/08/30 12:23:29;;;;;;;;;;;;;;;20.63;63.63;102091.31;5066429;28;20326;-54
2022/08/30 12:26:09;;;;;;;;;;;;;;;20.70;63.41;102087.16;5063483;28;19928;-53
2022/08/30 12:28:34;;;;;;;;;;;;;;;20.77;63.14;102081.38;5065885;28;19927;-53
2022/08/30 12:31:08;;;;;;;;;;;;;;;20.83;62.79;102075.50;5057782;28;19929;-54
2022/08/30 12:33:40;;;;;;;;;;;;;;;20.90;62.41;102074.06;5060977;28;19963;-54
2022/08/30 12:36:05;;;;;;;;;;;;;;;20.95;62.45;102069.16;5061703;28;19942;-54
2022/08/30 12:38:30;;;;;;;;;;;;;;;21.04;62.22;102072.06;5050429;28;20580;-53
2022/08/30 12:40:57;;;;;;;;;;;;;;;21.10;62.22;102066.25;5055234;28;20478;-52
2022/08/30 12:43:43;;;;;;;;;;;;;;;21.16;61.87;102068.41;5055604;28;20380;-51
2022/08/30 12:46:11;;;;;;;;;;;;;;;21.20;61.65;102061.81;5046689;28;19931;-53
2022/08/30 12:48:38;;;;;;;;;;;;;;;21.20;61.42;102067.16;5028401;28;19935;-55